sensor_id;sensor_type;location;lat;lon;timestamp;temperature;humidity
32706;DHT22;19094;50.972;3.538;2022-07-12T00:01:21;24.60;53.80
32706;DHT22;19094;50.972;3.538;2022-07-12T00:03:47;24.60;53.80
32706;DHT22;19094;50.972;3.538;2022-07-12T00:06:14;24.60;53.90
32706;DHT22;19094;50.972;3.538;2022-07-12T00:08:39;24.60;53.90
32706;DHT22;19094;50.972;3.538;2022-07-12T00:11:05;24.60;53.90
32706;DHT22;19094;50.972;3.538;2022-07-12T00:13:31;24.50;54.00
32706;DHT22;19094;50.972;3.538;2022-07-12T00:15:57;24.50;54.00
32706;DHT22;19094;50.972;3.538;2022-07-12T00:18:25;24.50;54.00
32706;DHT22;19094;50.972;3.538;2022-07-12T00:20:50;24.50;54.00
32706;DHT22;19094;50.972;3.538;2022-07-12T00:23:16;24.50;54.00
32706;DHT22;19094;50.972;3.538;2022-07-12T00:25:42;24.50;54.00
32706;DHT22;19094;50.972;3.538;2022-07-12T00:28:09;24.50;54.00
32706;DHT22;19094;50.972;3.538;2022-07-12T00:30:36;24.50;54.00
32706;DHT22;19094;50.972;3.538;2022-07-12T00:33:03;24.50;54.00
32706;DHT22;19094;50.972;3.538;2022-07-12T00:35:29;24.50;54.00
32706;DHT22;19094;50.972;3.538;2022-07-12T00:37:54;24.50;54.10
32706;DHT22;19094;50.972;3.538;2022-07-12T00:40:20;24.50;54.60
32706;DHT22;19094;50.972;3.538;2022-07-12T00:42:47;24.50;54.10
32706;DHT22;19094;50.972;3.538;2022-07-12T00:45:13;24.50;54.10
32706;DHT22;19094;50.972;3.538;2022-07-12T00:47:43;24.40;54.10
32706;DHT22;19094;50.972;3.538;2022-07-12T00:50:22;24.40;54.10
32706;DHT22;19094;50.972;3.538;2022-07-12T00:52:52;24.40;54.20
32706;DHT22;19094;50.972;3.538;2022-07-12T00:55:18;24.40;54.10
32706;DHT22;19094;50.972;3.538;2022-07-12T00:57:44;24.40;54.20
32706;DHT22;19094;50.972;3.538;2022-07-12T01:00:21;24.40;54.10
32706;DHT22;19094;50.972;3.538;2022-07-12T01:02:47;24.40;54.20
32706;DHT22;19094;50.972;3.538;2022-07-12T01:05:14;24.40;54.20
32706;DHT22;19094;50.972;3.538;2022-07-12T01:07:40;24.40;54.20
32706;DHT22;19094;50.972;3.538;2022-07-12T01:10:07;24.30;54.20
32706;DHT22;19094;50.972;3.538;2022-07-12T01:12:35;24.30;54.20
32706;DHT22;19094;50.972;3.538;2022-07-12T01:15:08;24.30;54.30
32706;DHT22;19094;50.972;3.538;2022-07-12T01:17:34;24.30;54.30
32706;DHT22;19094;50.972;3.538;2022-07-12T01:20:00;24.30;54.20
32706;DHT22;19094;50.972;3.538;2022-07-12T01:22:31;24.30;54.30
32706;DHT22;19094;50.972;3.538;2022-07-12T01:24:57;24.30;54.30
32706;DHT22;19094;50.972;3.538;2022-07-12T01:27:23;24.30;54.30
32706;DHT22;19094;50.972;3.538;2022-07-12T01:29:49;24.30;54.30
32706;DHT22;19094;50.972;3.538;2022-07-12T01:32:15;24.30;54.30
32706;DHT22;19094;50.972;3.538;2022-07-12T01:34:52;24.30;54.40
32706;DHT22;19094;50.972;3.538;2022-07-12T01:37:19;24.20;54.90
32706;DHT22;19094;50.972;3.538;2022-07-12T01:39:46;24.20;54.30
32706;DHT22;19094;50.972;3.538;2022-07-12T01:42:12;24.20;54.40
32706;DHT22;19094;50.972;3.538;2022-07-12T01:44:40;24.20;54.40
32706;DHT22;19094;50.972;3.538;2022-07-12T01:47:07;24.20;54.40
32706;DHT22;19094;50.972;3.538;2022-07-12T01:49:32;24.20;54.40
32706;DHT22;19094;50.972;3.538;2022-07-12T01:51:59;24.20;54.40
32706;DHT22;19094;50.972;3.538;2022-07-12T01:54:25;24.20;54.40
32706;DHT22;19094;50.972;3.538;2022-07-12T01:56:52;24.20;54.40
32706;DHT22;19094;50.972;3.538;2022-07-12T01:59:18;24.20;54.40
32706;DHT22;19094;50.972;3.538;2022-07-12T02:01:45;24.20;54.40
32706;DHT22;19094;50.972;3.538;2022-07-12T02:04:17;24.20;54.40
32706;DHT22;19094;50.972;3.538;2022-07-12T02:06:48;24.10;54.40
32706;DHT22;19094;50.972;3.538;2022-07-12T02:09:14;24.10;54.40
32706;DHT22;19094;50.972;3.538;2022-07-12T02:11:41;24.10;54.40
32706;DHT22;19094;50.972;3.538;2022-07-12T02:14:07;24.10;55.00
32706;DHT22;19094;50.972;3.538;2022-07-12T02:16:33;24.10;54.40
32706;DHT22;19094;50.972;3.538;2022-07-12T02:18:59;24.10;54.40
32706;DHT22;19094;50.972;3.538;2022-07-12T02:21:26;24.10;54.40
32706;DHT22;19094;50.972;3.538;2022-07-12T02:23:52;24.10;54.50
32706;DHT22;19094;50.972;3.538;2022-07-12T02:26:18;24.10;54.50
32706;DHT22;19094;50.972;3.538;2022-07-12T02:28:44;24.10;54.50
32706;DHT22;19094;50.972;3.538;2022-07-12T02:31:11;24.10;54.50
32706;DHT22;19094;50.972;3.538;2022-07-12T02:33:38;24.10;54.50
32706;DHT22;19094;50.972;3.538;2022-07-12T02:36:04;24.10;54.50
32706;DHT22;19094;50.972;3.538;2022-07-12T02:38:30;24.10;54.50
32706;DHT22;19094;50.972;3.538;2022-07-12T02:40:56;24.10;54.50
32706;DHT22;19094;50.972;3.538;2022-07-12T02:43:22;24.10;54.50
32706;DHT22;19094;50.972;3.538;2022-07-12T02:45:48;24.10;54.60
32706;DHT22;19094;50.972;3.538;2022-07-12T02:48:15;24.10;54.50
32706;DHT22;19094;50.972;3.538;2022-07-12T02:50:41;24.00;54.50
32706;DHT22;19094;50.972;3.538;2022-07-12T02:53:09;24.00;54.50
32706;DHT22;19094;50.972;3.538;2022-07-12T02:55:35;24.00;54.60
32706;DHT22;19094;50.972;3.538;2022-07-12T02:58:02;24.00;54.60
32706;DHT22;19094;50.972;3.538;2022-07-12T03:00:33;24.00;54.60
32706;DHT22;19094;50.972;3.538;2022-07-12T03:02:59;24.00;54.60
32706;DHT22;19094;50.972;3.538;2022-07-12T03:05:28;24.00;54.60
32706;DHT22;19094;50.972;3.538;2022-07-12T03:07:57;23.90;54.60
32706;DHT22;19094;50.972;3.538;2022-07-12T03:10:28;24.00;54.60
32706;DHT22;19094;50.972;3.538;2022-07-12T03:12:55;23.90;54.60
32706;DHT22;19094;50.972;3.538;2022-07-12T03:15:21;23.90;55.20
32706;DHT22;19094;50.972;3.538;2022-07-12T03:17:47;23.90;54.60
32706;DHT22;19094;50.972;3.538;2022-07-12T03:20:13;23.90;54.60
32706;DHT22;19094;50.972;3.538;2022-07-12T03:22:41;23.90;54.60
32706;DHT22;19094;50.972;3.538;2022-07-12T03:25:07;23.90;54.60
32706;DHT22;19094;50.972;3.538;2022-07-12T03:27:34;23.90;54.60
32706;DHT22;19094;50.972;3.538;2022-07-12T03:29:59;23.90;54.70
32706;DHT22;19094;50.972;3.538;2022-07-12T03:32:26;23.90;54.70
32706;DHT22;19094;50.972;3.538;2022-07-12T03:34:52;23.90;54.70
32706;DHT22;19094;50.972;3.538;2022-07-12T03:37:18;23.80;54.60
32706;DHT22;19094;50.972;3.538;2022-07-12T03:39:45;23.90;54.80
32706;DHT22;19094;50.972;3.538;2022-07-12T03:42:11;23.80;54.70
32706;DHT22;19094;50.972;3.538;2022-07-12T03:44:38;23.80;54.70
32706;DHT22;19094;50.972;3.538;2022-07-12T03:47:04;23.80;54.70
32706;DHT22;19094;50.972;3.538;2022-07-12T03:49:31;23.80;54.80
32706;DHT22;19094;50.972;3.538;2022-07-12T03:51:56;23.80;54.80
32706;DHT22;19094;50.972;3.538;2022-07-12T03:54:22;23.70;54.90
32706;DHT22;19094;50.972;3.538;2022-07-12T03:56:49;23.70;55.00
32706;DHT22;19094;50.972;3.538;2022-07-12T03:59:35;23.70;55.00
32706;DHT22;19094;50.972;3.538;2022-07-12T04:02:01;23.60;55.10
32706;DHT22;19094;50.972;3.538;2022-07-12T04:04:29;23.60;55.20
32706;DHT22;19094;50.972;3.538;2022-07-12T04:06:56;23.60;55.20
32706;DHT22;19094;50.972;3.538;2022-07-12T04:09:21;23.50;55.20
32706;DHT22;19094;50.972;3.538;2022-07-12T04:11:48;23.50;55.20
32706;DHT22;19094;50.972;3.538;2022-07-12T04:14:14;23.50;55.30
32706;DHT22;19094;50.972;3.538;2022-07-12T04:16:40;23.50;55.30
32706;DHT22;19094;50.972;3.538;2022-07-12T04:19:06;23.50;55.30
32706;DHT22;19094;50.972;3.538;2022-07-12T04:21:36;23.50;55.30
32706;DHT22;19094;50.972;3.538;2022-07-12T04:24:03;23.50;55.40
32706;DHT22;19094;50.972;3.538;2022-07-12T04:26:29;23.50;55.40
32706;DHT22;19094;50.972;3.538;2022-07-12T04:28:55;23.40;55.40
32706;DHT22;19094;50.972;3.538;2022-07-12T04:31:23;23.40;55.40
32706;DHT22;19094;50.972;3.538;2022-07-12T04:33:51;23.50;55.40
32706;DHT22;19094;50.972;3.538;2022-07-12T04:36:18;23.40;55.40
32706;DHT22;19094;50.972;3.538;2022-07-12T04:38:44;23.40;55.40
32706;DHT22;19094;50.972;3.538;2022-07-12T04:41:09;23.40;55.40
32706;DHT22;19094;50.972;3.538;2022-07-12T04:43:35;23.50;55.50
32706;DHT22;19094;50.972;3.538;2022-07-12T04:46:10;23.40;55.40
32706;DHT22;19094;50.972;3.538;2022-07-12T04:48:37;23.40;55.40
32706;DHT22;19094;50.972;3.538;2022-07-12T04:51:03;23.40;55.40
32706;DHT22;19094;50.972;3.538;2022-07-12T04:53:30;23.40;55.50
32706;DHT22;19094;50.972;3.538;2022-07-12T04:55:56;23.40;55.50
32706;DHT22;19094;50.972;3.538;2022-07-12T04:58:24;23.40;56.00
32706;DHT22;19094;50.972;3.538;2022-07-12T05:00:50;23.40;55.50
32706;DHT22;19094;50.972;3.538;2022-07-12T05:03:16;23.40;55.50
32706;DHT22;19094;50.972;3.538;2022-07-12T05:05:42;23.40;55.50
32706;DHT22;19094;50.972;3.538;2022-07-12T05:08:08;23.40;55.60
32706;DHT22;19094;50.972;3.538;2022-07-12T05:10:34;23.40;55.60
32706;DHT22;19094;50.972;3.538;2022-07-12T05:13:01;23.40;55.60
32706;DHT22;19094;50.972;3.538;2022-07-12T05:15:27;23.40;55.60
32706;DHT22;19094;50.972;3.538;2022-07-12T05:17:52;23.40;55.60
32706;DHT22;19094;50.972;3.538;2022-07-12T05:20:18;23.40;55.60
32706;DHT22;19094;50.972;3.538;2022-07-12T05:22:44;23.40;55.60
32706;DHT22;19094;50.972;3.538;2022-07-12T05:25:10;23.40;55.70
32706;DHT22;19094;50.972;3.538;2022-07-12T05:27:37;23.40;55.60
32706;DHT22;19094;50.972;3.538;2022-07-12T05:30:03;23.40;55.70
32706;DHT22;19094;50.972;3.538;2022-07-12T05:32:29;23.40;55.70
32706;DHT22;19094;50.972;3.538;2022-07-12T05:34:55;23.40;55.80
32706;DHT22;19094;50.972;3.538;2022-07-12T05:37:21;23.40;55.70
32706;DHT22;19094;50.972;3.538;2022-07-12T05:39:51;23.40;55.70
32706;DHT22;19094;50.972;3.538;2022-07-12T05:42:18;23.40;55.80
32706;DHT22;19094;50.972;3.538;2022-07-12T05:44:44;23.40;55.80
32706;DHT22;19094;50.972;3.538;2022-07-12T05:47:11;23.40;55.80
32706;DHT22;19094;50.972;3.538;2022-07-12T05:49:37;23.40;55.80
32706;DHT22;19094;50.972;3.538;2022-07-12T05:52:04;23.40;55.90
32706;DHT22;19094;50.972;3.538;2022-07-12T05:54:48;23.40;55.80
32706;DHT22;19094;50.972;3.538;2022-07-12T05:57:17;23.40;56.00
32706;DHT22;19094;50.972;3.538;2022-07-12T05:59:43;23.40;55.90
32706;DHT22;19094;50.972;3.538;2022-07-12T06:02:09;23.40;55.80
32706;DHT22;19094;50.972;3.538;2022-07-12T06:04:35;23.40;55.90
32706;DHT22;19094;50.972;3.538;2022-07-12T06:07:01;23.40;55.90
32706;DHT22;19094;50.972;3.538;2022-07-12T06:09:30;23.40;55.80
32706;DHT22;19094;50.972;3.538;2022-07-12T06:11:55;23.50;55.90
32706;DHT22;19094;50.972;3.538;2022-07-12T06:14:21;23.50;55.80
32706;DHT22;19094;50.972;3.538;2022-07-12T06:16:53;23.50;55.80
32706;DHT22;19094;50.972;3.538;2022-07-12T06:19:19;23.50;56.00
32706;DHT22;19094;50.972;3.538;2022-07-12T06:21:46;23.50;56.00
32706;DHT22;19094;50.972;3.538;2022-07-12T06:24:12;23.50;55.70
32706;DHT22;19094;50.972;3.538;2022-07-12T06:26:38;23.50;55.80
32706;DHT22;19094;50.972;3.538;2022-07-12T06:29:04;23.60;55.80
32706;DHT22;19094;50.972;3.538;2022-07-12T06:31:29;23.60;55.90
32706;DHT22;19094;50.972;3.538;2022-07-12T06:33:55;23.60;55.80
32706;DHT22;19094;50.972;3.538;2022-07-12T06:36:21;23.60;55.90
32706;DHT22;19094;50.972;3.538;2022-07-12T06:38:48;23.60;55.70
32706;DHT22;19094;50.972;3.538;2022-07-12T06:41:14;23.60;55.80
32706;DHT22;19094;50.972;3.538;2022-07-12T06:43:39;23.60;55.80
32706;DHT22;19094;50.972;3.538;2022-07-12T06:46:05;23.60;56.20
32706;DHT22;19094;50.972;3.538;2022-07-12T06:48:31;23.70;56.10
32706;DHT22;19094;50.972;3.538;2022-07-12T06:50:57;23.70;56.30
32706;DHT22;19094;50.972;3.538;2022-07-12T06:53:22;23.70;56.60
32706;DHT22;19094;50.972;3.538;2022-07-12T06:55:48;23.70;56.30
32706;DHT22;19094;50.972;3.538;2022-07-12T06:58:14;23.70;56.40
32706;DHT22;19094;50.972;3.538;2022-07-12T07:00:39;23.70;56.30
32706;DHT22;19094;50.972;3.538;2022-07-12T07:03:05;23.70;56.60
32706;DHT22;19094;50.972;3.538;2022-07-12T07:05:31;23.70;56.10
32706;DHT22;19094;50.972;3.538;2022-07-12T07:07:57;23.70;56.60
32706;DHT22;19094;50.972;3.538;2022-07-12T07:10:22;23.70;56.90
32706;DHT22;19094;50.972;3.538;2022-07-12T07:12:48;23.70;56.90
32706;DHT22;19094;50.972;3.538;2022-07-12T07:15:14;23.80;56.90
32706;DHT22;19094;50.972;3.538;2022-07-12T07:17:41;23.80;56.60
32706;DHT22;19094;50.972;3.538;2022-07-12T07:20:09;23.80;56.60
32706;DHT22;19094;50.972;3.538;2022-07-12T07:22:36;23.80;56.50
32706;DHT22;19094;50.972;3.538;2022-07-12T07:25:03;23.80;56.70
32706;DHT22;19094;50.972;3.538;2022-07-12T07:27:29;23.80;56.80
32706;DHT22;19094;50.972;3.538;2022-07-12T07:29:54;23.80;57.00
32706;DHT22;19094;50.972;3.538;2022-07-12T07:32:39;23.80;56.90
32706;DHT22;19094;50.972;3.538;2022-07-12T07:35:05;23.90;57.20
32706;DHT22;19094;50.972;3.538;2022-07-12T07:37:33;23.90;57.00
32706;DHT22;19094;50.972;3.538;2022-07-12T07:39:59;23.90;56.70
32706;DHT22;19094;50.972;3.538;2022-07-12T07:42:24;23.90;57.10
32706;DHT22;19094;50.972;3.538;2022-07-12T07:44:50;23.90;57.70
32706;DHT22;19094;50.972;3.538;2022-07-12T07:47:15;23.90;57.10
32706;DHT22;19094;50.972;3.538;2022-07-12T07:49:42;23.90;57.00
32706;DHT22;19094;50.972;3.538;2022-07-12T07:52:08;23.90;57.20
32706;DHT22;19094;50.972;3.538;2022-07-12T07:54:34;23.90;57.30
32706;DHT22;19094;50.972;3.538;2022-07-12T07:57:00;23.90;57.00
32706;DHT22;19094;50.972;3.538;2022-07-12T07:59:26;24.00;56.80
32706;DHT22;19094;50.972;3.538;2022-07-12T08:01:52;24.00;56.70
32706;DHT22;19094;50.972;3.538;2022-07-12T08:04:20;24.00;56.70
32706;DHT22;19094;50.972;3.538;2022-07-12T08:06:47;24.00;56.40
32706;DHT22;19094;50.972;3.538;2022-07-12T08:09:13;24.10;57.10
32706;DHT22;19094;50.972;3.538;2022-07-12T08:11:41;24.10;56.40
32706;DHT22;19094;50.972;3.538;2022-07-12T08:14:07;24.10;56.10
32706;DHT22;19094;50.972;3.538;2022-07-12T08:16:34;24.10;55.90
32706;DHT22;19094;50.972;3.538;2022-07-12T08:19:00;24.10;56.10
32706;DHT22;19094;50.972;3.538;2022-07-12T08:21:26;24.10;55.80
32706;DHT22;19094;50.972;3.538;2022-07-12T08:23:52;24.20;55.80
32706;DHT22;19094;50.972;3.538;2022-07-12T08:26:21;24.20;55.50
32706;DHT22;19094;50.972;3.538;2022-07-12T08:28:47;24.30;55.40
32706;DHT22;19094;50.972;3.538;2022-07-12T08:31:13;24.30;55.20
32706;DHT22;19094;50.972;3.538;2022-07-12T08:33:40;24.30;55.40
32706;DHT22;19094;50.972;3.538;2022-07-12T08:36:07;24.30;55.20
32706;DHT22;19094;50.972;3.538;2022-07-12T08:38:37;24.40;55.00
32706;DHT22;19094;50.972;3.538;2022-07-12T08:41:05;24.40;54.70
32706;DHT22;19094;50.972;3.538;2022-07-12T08:43:34;24.50;54.50
32706;DHT22;19094;50.972;3.538;2022-07-12T08:46:09;24.50;54.40
32706;DHT22;19094;50.972;3.538;2022-07-12T08:48:36;24.50;54.50
32706;DHT22;19094;50.972;3.538;2022-07-12T08:51:07;24.50;54.20
32706;DHT22;19094;50.972;3.538;2022-07-12T08:53:35;24.60;53.90
32706;DHT22;19094;50.972;3.538;2022-07-12T08:56:02;24.60;54.00
32706;DHT22;19094;50.972;3.538;2022-07-12T08:58:29;24.70;53.70
32706;DHT22;19094;50.972;3.538;2022-07-12T09:00:55;24.70;53.60
32706;DHT22;19094;50.972;3.538;2022-07-12T09:03:21;24.80;53.70
32706;DHT22;19094;50.972;3.538;2022-07-12T09:05:52;24.80;53.10
32706;DHT22;19094;50.972;3.538;2022-07-12T09:08:23;24.80;52.90
32706;DHT22;19094;50.972;3.538;2022-07-12T09:10:57;24.90;53.00
32706;DHT22;19094;50.972;3.538;2022-07-12T09:16:22;25.00;52.80
32706;DHT22;19094;50.972;3.538;2022-07-12T09:18:50;25.00;52.70
32706;DHT22;19094;50.972;3.538;2022-07-12T09:21:26;25.10;52.80
32706;DHT22;19094;50.972;3.538;2022-07-12T09:23:54;25.10;52.20
32706;DHT22;19094;50.972;3.538;2022-07-12T09:26:21;25.10;52.30
32706;DHT22;19094;50.972;3.538;2022-07-12T09:28:49;25.10;52.10
32706;DHT22;19094;50.972;3.538;2022-07-12T09:31:17;25.20;51.50
32706;DHT22;19094;50.972;3.538;2022-07-12T09:33:59;25.20;51.30
32706;DHT22;19094;50.972;3.538;2022-07-12T09:36:54;25.30;51.20
32706;DHT22;19094;50.972;3.538;2022-07-12T09:39:23;25.30;51.30
32706;DHT22;19094;50.972;3.538;2022-07-12T09:41:54;25.30;51.30
32706;DHT22;19094;50.972;3.538;2022-07-12T09:44:20;25.40;51.50
32706;DHT22;19094;50.972;3.538;2022-07-12T09:46:47;25.40;51.40
32706;DHT22;19094;50.972;3.538;2022-07-12T09:49:19;25.40;50.70
32706;DHT22;19094;50.972;3.538;2022-07-12T09:51:45;25.40;51.10
32706;DHT22;19094;50.972;3.538;2022-07-12T09:54:14;25.50;50.50
32706;DHT22;19094;50.972;3.538;2022-07-12T09:56:47;25.60;49.70
32706;DHT22;19094;50.972;3.538;2022-07-12T09:59:18;25.60;50.00
32706;DHT22;19094;50.972;3.538;2022-07-12T10:01:46;25.70;50.30
32706;DHT22;19094;50.972;3.538;2022-07-12T10:04:13;25.70;49.90
32706;DHT22;19094;50.972;3.538;2022-07-12T10:06:41;25.70;50.10
32706;DHT22;19094;50.972;3.538;2022-07-12T10:09:09;25.60;50.50
32706;DHT22;19094;50.972;3.538;2022-07-12T10:11:37;25.70;49.90
32706;DHT22;19094;50.972;3.538;2022-07-12T10:14:04;25.80;49.40
32706;DHT22;19094;50.972;3.538;2022-07-12T10:16:33;25.80;49.20
32706;DHT22;19094;50.972;3.538;2022-07-12T10:19:25;25.80;49.40
32706;DHT22;19094;50.972;3.538;2022-07-12T10:21:57;25.90;49.30
32706;DHT22;19094;50.972;3.538;2022-07-12T10:30:23;26.00;48.00
32706;DHT22;19094;50.972;3.538;2022-07-12T10:32:55;26.00;49.50
32706;DHT22;19094;50.972;3.538;2022-07-12T10:35:28;26.00;48.80
32706;DHT22;19094;50.972;3.538;2022-07-12T10:38:14;25.80;47.60
32706;DHT22;19094;50.972;3.538;2022-07-12T10:40:42;25.90;47.70
32706;DHT22;19094;50.972;3.538;2022-07-12T10:45:40;26.20;47.30
32706;DHT22;19094;50.972;3.538;2022-07-12T10:53:30;26.30;46.60
32706;DHT22;19094;50.972;3.538;2022-07-12T10:56:24;26.40;47.00
32706;DHT22;19094;50.972;3.538;2022-07-12T10:58:54;26.40;47.20
32706;DHT22;19094;50.972;3.538;2022-07-12T11:01:31;26.40;47.80
32706;DHT22;19094;50.972;3.538;2022-07-12T11:04:08;26.40;46.40
32706;DHT22;19094;50.972;3.538;2022-07-12T11:06:37;26.50;46.30
32706;DHT22;19094;50.972;3.538;2022-07-12T11:09:09;26.50;47.80
32706;DHT22;19094;50.972;3.538;2022-07-12T11:11:47;26.50;46.50
32706;DHT22;19094;50.972;3.538;2022-07-12T11:14:24;26.60;46.50
32706;DHT22;19094;50.972;3.538;2022-07-12T11:16:53;26.70;46.30
32706;DHT22;19094;50.972;3.538;2022-07-12T11:19:27;26.70;46.70
32706;DHT22;19094;50.972;3.538;2022-07-12T11:21:55;26.80;46.30
32706;DHT22;19094;50.972;3.538;2022-07-12T11:24:23;26.80;46.80
32706;DHT22;19094;50.972;3.538;2022-07-12T11:27:06;26.90;45.60
32706;DHT22;19094;50.972;3.538;2022-07-12T11:29:58;26.90;47.20
32706;DHT22;19094;50.972;3.538;2022-07-12T11:32:40;27.00;45.50
32706;DHT22;19094;50.972;3.538;2022-07-12T11:35:24;27.10;45.80
32706;DHT22;19094;50.972;3.538;2022-07-12T11:37:56;27.20;46.10
32706;DHT22;19094;50.972;3.538;2022-07-12T11:40:27;27.20;46.40
32706;DHT22;19094;50.972;3.538;2022-07-12T11:42:58;27.30;45.30
32706;DHT22;19094;50.972;3.538;2022-07-12T11:45:28;27.20;46.50
32706;DHT22;19094;50.972;3.538;2022-07-12T11:47:58;27.30;44.70
32706;DHT22;19094;50.972;3.538;2022-07-12T11:50:24;27.40;44.00
32706;DHT22;19094;50.972;3.538;2022-07-12T11:52:53;27.50;45.70
32706;DHT22;19094;50.972;3.538;2022-07-12T11:55:21;27.60;44.80
32706;DHT22;19094;50.972;3.538;2022-07-12T11:57:47;27.70;45.30
32706;DHT22;19094;50.972;3.538;2022-07-12T12:00:22;27.60;45.90
32706;DHT22;19094;50.972;3.538;2022-07-12T12:02:54;27.60;44.20
32706;DHT22;19094;50.972;3.538;2022-07-12T12:05:21;27.60;44.20
32706;DHT22;19094;50.972;3.538;2022-07-12T12:07:47;27.80;44.10
32706;DHT22;19094;50.972;3.538;2022-07-12T12:10:15;27.90;43.20
32706;DHT22;19094;50.972;3.538;2022-07-12T12:15:19;27.90;43.40
32706;DHT22;19094;50.972;3.538;2022-07-12T12:17:58;28.00;44.90
32706;DHT22;19094;50.972;3.538;2022-07-12T12:20:45;27.90;43.10
32706;DHT22;19094;50.972;3.538;2022-07-12T12:23:19;28.00;43.70
32706;DHT22;19094;50.972;3.538;2022-07-12T12:25:46;28.00;43.10
32706;DHT22;19094;50.972;3.538;2022-07-12T12:28:12;28.00;43.00
32706;DHT22;19094;50.972;3.538;2022-07-12T12:30:49;28.00;43.10
32706;DHT22;19094;50.972;3.538;2022-07-12T12:33:42;28.00;44.20
32706;DHT22;19094;50.972;3.538;2022-07-12T12:36:14;28.00;43.00
32706;DHT22;19094;50.972;3.538;2022-07-12T12:38:40;28.00;41.90
32706;DHT22;19094;50.972;3.538;2022-07-12T12:41:08;28.00;43.90
32706;DHT22;19094;50.972;3.538;2022-07-12T12:43:35;28.00;42.10
32706;DHT22;19094;50.972;3.538;2022-07-12T12:46:02;28.00;42.50
32706;DHT22;19094;50.972;3.538;2022-07-12T12:48:31;28.00;43.90
32706;DHT22;19094;50.972;3.538;2022-07-12T12:51:10;28.10;42.90
32706;DHT22;19094;50.972;3.538;2022-07-12T12:53:38;28.20;42.30
32706;DHT22;19094;50.972;3.538;2022-07-12T12:56:11;28.30;43.40
32706;DHT22;19094;50.972;3.538;2022-07-12T12:58:40;28.30;43.30
32706;DHT22;19094;50.972;3.538;2022-07-12T13:01:08;28.40;42.80
32706;DHT22;19094;50.972;3.538;2022-07-12T13:03:36;28.40;43.10
32706;DHT22;19094;50.972;3.538;2022-07-12T13:06:02;28.50;41.70
32706;DHT22;19094;50.972;3.538;2022-07-12T13:08:29;28.50;41.30
32706;DHT22;19094;50.972;3.538;2022-07-12T13:10:54;28.60;41.50
32706;DHT22;19094;50.972;3.538;2022-07-12T13:13:57;28.60;39.70
32706;DHT22;19094;50.972;3.538;2022-07-12T13:16:27;28.70;40.10
32706;DHT22;19094;50.972;3.538;2022-07-12T13:18:53;28.70;42.20
32706;DHT22;19094;50.972;3.538;2022-07-12T13:21:19;28.70;41.50
32706;DHT22;19094;50.972;3.538;2022-07-12T13:23:45;28.80;40.20
32706;DHT22;19094;50.972;3.538;2022-07-12T13:26:12;28.70;42.00
32706;DHT22;19094;50.972;3.538;2022-07-12T13:28:38;28.80;42.50
32706;DHT22;19094;50.972;3.538;2022-07-12T13:31:04;28.90;40.50
32706;DHT22;19094;50.972;3.538;2022-07-12T13:33:30;29.00;40.30
32706;DHT22;19094;50.972;3.538;2022-07-12T13:35:58;29.00;41.90
32706;DHT22;19094;50.972;3.538;2022-07-12T13:38:24;29.00;39.40
32706;DHT22;19094;50.972;3.538;2022-07-12T13:40:51;29.20;40.60
32706;DHT22;19094;50.972;3.538;2022-07-12T13:43:18;29.20;39.80
32706;DHT22;19094;50.972;3.538;2022-07-12T13:45:44;29.10;38.30
32706;DHT22;19094;50.972;3.538;2022-07-12T13:48:10;29.20;38.00
32706;DHT22;19094;50.972;3.538;2022-07-12T13:50:37;29.40;40.50
32706;DHT22;19094;50.972;3.538;2022-07-12T13:53:02;29.40;40.10
32706;DHT22;19094;50.972;3.538;2022-07-12T13:55:28;29.50;38.30
32706;DHT22;19094;50.972;3.538;2022-07-12T13:57:56;29.60;39.60
32706;DHT22;19094;50.972;3.538;2022-07-12T14:00:23;29.50;39.80
32706;DHT22;19094;50.972;3.538;2022-07-12T14:02:49;29.60;39.10
32706;DHT22;19094;50.972;3.538;2022-07-12T14:05:16;29.50;39.80
32706;DHT22;19094;50.972;3.538;2022-07-12T14:07:43;29.60;38.30
32706;DHT22;19094;50.972;3.538;2022-07-12T14:10:10;29.60;37.90
32706;DHT22;19094;50.972;3.538;2022-07-12T14:12:37;29.60;39.40
32706;DHT22;19094;50.972;3.538;2022-07-12T14:15:04;29.50;39.90
32706;DHT22;19094;50.972;3.538;2022-07-12T14:17:47;29.50;38.10
32706;DHT22;19094;50.972;3.538;2022-07-12T14:20:17;29.50;38.50
32706;DHT22;19094;50.972;3.538;2022-07-12T14:22:42;29.40;39.50
32706;DHT22;19094;50.972;3.538;2022-07-12T14:25:12;29.30;38.40
32706;DHT22;19094;50.972;3.538;2022-07-12T14:27:39;29.30;38.70
32706;DHT22;19094;50.972;3.538;2022-07-12T14:30:07;29.20;39.20
32706;DHT22;19094;50.972;3.538;2022-07-12T14:32:35;29.20;38.60
32706;DHT22;19094;50.972;3.538;2022-07-12T14:35:03;29.20;39.50
32706;DHT22;19094;50.972;3.538;2022-07-12T14:37:29;29.10;41.90
32706;DHT22;19094;50.972;3.538;2022-07-12T14:39:55;29.10;39.00
32706;DHT22;19094;50.972;3.538;2022-07-12T14:42:20;29.00;39.00
32706;DHT22;19094;50.972;3.538;2022-07-12T14:44:47;28.90;39.20
32706;DHT22;19094;50.972;3.538;2022-07-12T14:47:14;28.90;40.60
32706;DHT22;19094;50.972;3.538;2022-07-12T14:49:42;28.80;39.90
32706;DHT22;19094;50.972;3.538;2022-07-12T14:52:11;28.80;39.70
32706;DHT22;19094;50.972;3.538;2022-07-12T14:54:37;28.70;39.60
32706;DHT22;19094;50.972;3.538;2022-07-12T14:57:05;28.70;40.10
32706;DHT22;19094;50.972;3.538;2022-07-12T14:59:31;28.80;39.80
32706;DHT22;19094;50.972;3.538;2022-07-12T15:01:59;28.70;40.20
32706;DHT22;19094;50.972;3.538;2022-07-12T15:04:25;28.60;40.10
32706;DHT22;19094;50.972;3.538;2022-07-12T15:06:53;28.70;41.40
32706;DHT22;19094;50.972;3.538;2022-07-12T15:09:18;28.70;40.30
32706;DHT22;19094;50.972;3.538;2022-07-12T15:11:44;28.80;40.60
32706;DHT22;19094;50.972;3.538;2022-07-12T15:14:10;28.80;40.40
32706;DHT22;19094;50.972;3.538;2022-07-12T15:16:36;28.80;40.60
32706;DHT22;19094;50.972;3.538;2022-07-12T15:19:03;28.90;40.90
32706;DHT22;19094;50.972;3.538;2022-07-12T15:21:29;28.90;40.30
32706;DHT22;19094;50.972;3.538;2022-07-12T15:23:54;29.00;40.30
32706;DHT22;19094;50.972;3.538;2022-07-12T15:26:20;29.10;39.30
32706;DHT22;19094;50.972;3.538;2022-07-12T15:29:07;29.20;40.50
32706;DHT22;19094;50.972;3.538;2022-07-12T15:31:33;29.20;40.30
32706;DHT22;19094;50.972;3.538;2022-07-12T15:34:00;29.30;38.80
32706;DHT22;19094;50.972;3.538;2022-07-12T15:36:26;29.40;38.70
32706;DHT22;19094;50.972;3.538;2022-07-12T15:38:52;29.40;39.80
32706;DHT22;19094;50.972;3.538;2022-07-12T15:41:19;29.50;38.60
32706;DHT22;19094;50.972;3.538;2022-07-12T15:43:44;29.50;37.20
32706;DHT22;19094;50.972;3.538;2022-07-12T15:46:11;29.60;38.80
32706;DHT22;19094;50.972;3.538;2022-07-12T15:48:38;29.70;38.60
32706;DHT22;19094;50.972;3.538;2022-07-12T15:51:04;29.60;37.40
32706;DHT22;19094;50.972;3.538;2022-07-12T15:53:31;29.50;40.80
32706;DHT22;19094;50.972;3.538;2022-07-12T15:56:01;29.50;37.90